sensor_id;sensor_type;location;lat;lon;timestamp;temperature;humidity
78289;DHT22;67539;48.752;12.922;2023-02-04T00:00:26;4.30;99.90
78289;DHT22;67539;48.752;12.922;2023-02-04T00:02:55;4.30;99.90
78289;DHT22;67539;48.752;12.922;2023-02-04T00:05:23;4.30;99.90
78289;DHT22;67539;48.752;12.922;2023-02-04T00:07:52;4.40;99.90
78289;DHT22;67539;48.752;12.922;2023-02-04T00:10:20;4.40;99.90
78289;DHT22;67539;48.752;12.922;2023-02-04T00:12:48;4.50;99.90
78289;DHT22;67539;48.752;12.922;2023-02-04T00:15:16;4.60;99.90
78289;DHT22;67539;48.752;12.922;2023-02-04T00:17:44;4.80;99.90
78289;DHT22;67539;48.752;12.922;2023-02-04T00:20:12;4.80;99.90
78289;DHT22;67539;48.752;12.922;2023-02-04T00:22:40;4.80;99.90
78289;DHT22;67539;48.752;12.922;2023-02-04T00:25:10;4.80;99.90
78289;DHT22;67539;48.752;12.922;2023-02-04T00:27:38;4.80;99.90
78289;DHT22;67539;48.752;12.922;2023-02-04T00:30:07;4.80;99.90
78289;DHT22;67539;48.752;12.922;2023-02-04T00:32:35;4.80;99.90
78289;DHT22;67539;48.752;12.922;2023-02-04T00:35:03;4.80;99.90
78289;DHT22;67539;48.752;12.922;2023-02-04T00:37:31;4.80;99.90
78289;DHT22;67539;48.752;12.922;2023-02-04T00:39:59;4.80;99.90
78289;DHT22;67539;48.752;12.922;2023-02-04T00:42:29;4.80;99.90
78289;DHT22;67539;48.752;12.922;2023-02-04T00:44:57;4.80;99.90
78289;DHT22;67539;48.752;12.922;2023-02-04T00:47:25;4.80;99.90
78289;DHT22;67539;48.752;12.922;2023-02-04T00:49:55;4.80;99.90
78289;DHT22;67539;48.752;12.922;2023-02-04T00:52:23;4.80;99.90
78289;DHT22;67539;48.752;12.922;2023-02-04T00:54:51;4.70;99.90
78289;DHT22;67539;48.752;12.922;2023-02-04T00:57:19;4.70;99.90
78289;DHT22;67539;48.752;12.922;2023-02-04T00:59:48;4.70;99.90
78289;DHT22;67539;48.752;12.922;2023-02-04T01:02:16;4.60;99.90
78289;DHT22;67539;48.752;12.922;2023-02-04T01:04:44;4.50;99.90
78289;DHT22;67539;48.752;12.922;2023-02-04T01:07:12;4.60;99.90
78289;DHT22;67539;48.752;12.922;2023-02-04T01:09:40;4.50;99.90
78289;DHT22;67539;48.752;12.922;2023-02-04T01:12:08;4.50;99.90
78289;DHT22;67539;48.752;12.922;2023-02-04T01:14:36;4.50;99.90
78289;DHT22;67539;48.752;12.922;2023-02-04T01:17:06;4.60;99.90
78289;DHT22;67539;48.752;12.922;2023-02-04T01:19:34;4.60;99.90
78289;DHT22;67539;48.752;12.922;2023-02-04T01:22:02;4.60;99.90
78289;DHT22;67539;48.752;12.922;2023-02-04T01:24:30;4.60;99.90
78289;DHT22;67539;48.752;12.922;2023-02-04T01:27:16;4.60;99.90
78289;DHT22;67539;48.752;12.922;2023-02-04T01:29:44;4.60;99.90
78289;DHT22;67539;48.752;12.922;2023-02-04T01:32:14;4.60;99.90
78289;DHT22;67539;48.752;12.922;2023-02-04T01:34:42;4.60;99.90
78289;DHT22;67539;48.752;12.922;2023-02-04T01:37:10;4.60;99.90
78289;DHT22;67539;48.752;12.922;2023-02-04T01:39:37;4.60;99.90
78289;DHT22;67539;48.752;12.922;2023-02-04T01:42:06;4.60;99.90
78289;DHT22;67539;48.752;12.922;2023-02-04T01:44:35;4.70;99.90
78289;DHT22;67539;48.752;12.922;2023-02-04T01:47:03;4.70;99.90
78289;DHT22;67539;48.752;12.922;2023-02-04T01:49:33;4.70;99.90
78289;DHT22;67539;48.752;12.922;2023-02-04T01:52:01;4.70;99.90
78289;DHT22;67539;48.752;12.922;2023-02-04T01:54:29;4.80;99.90
78289;DHT22;67539;48.752;12.922;2023-02-04T01:56:58;4.80;99.90
78289;DHT22;67539;48.752;12.922;2023-02-04T01:59:26;4.80;99.90
78289;DHT22;67539;48.752;12.922;2023-02-04T02:01:54;4.80;99.90
78289;DHT22;67539;48.752;12.922;2023-02-04T02:04:28;4.90;99.90
78289;DHT22;67539;48.752;12.922;2023-02-04T02:06:59;4.80;99.80
78289;DHT22;67539;48.752;12.922;2023-02-04T02:09:29;4.80;99.20
78289;DHT22;67539;48.752;12.922;2023-02-04T02:11:59;4.90;96.60
78289;DHT22;67539;48.752;12.922;2023-02-04T02:14:28;4.90;97.60
78289;DHT22;67539;48.752;12.922;2023-02-04T02:16:56;4.90;98.50
78289;DHT22;67539;48.752;12.922;2023-02-04T02:19:28;4.90;97.90
78289;DHT22;67539;48.752;12.922;2023-02-04T02:22:02;4.90;97.80
78289;DHT22;67539;48.752;12.922;2023-02-04T02:24:34;4.90;97.70
78289;DHT22;67539;48.752;12.922;2023-02-04T02:27:04;4.90;96.20
78289;DHT22;67539;48.752;12.922;2023-02-04T02:29:34;5.00;96.60
78289;DHT22;67539;48.752;12.922;2023-02-04T02:32:03;4.80;97.10
78289;DHT22;67539;48.752;12.922;2023-02-04T02:34:32;4.80;96.90
78289;DHT22;67539;48.752;12.922;2023-02-04T02:37:02;4.80;97.40
78289;DHT22;67539;48.752;12.922;2023-02-04T02:39:30;4.70;96.60
78289;DHT22;67539;48.752;12.922;2023-02-04T02:42:00;4.80;96.50
78289;DHT22;67539;48.752;12.922;2023-02-04T02:44:29;4.80;96.00
78289;DHT22;67539;48.752;12.922;2023-02-04T02:46:57;4.80;96.10
78289;DHT22;67539;48.752;12.922;2023-02-04T02:49:28;4.80;95.50
78289;DHT22;67539;48.752;12.922;2023-02-04T02:51:57;4.80;95.30
78289;DHT22;67539;48.752;12.922;2023-02-04T02:54:28;4.80;95.60
78289;DHT22;67539;48.752;12.922;2023-02-04T02:57:01;4.80;95.40
78289;DHT22;67539;48.752;12.922;2023-02-04T02:59:29;4.80;95.40
78289;DHT22;67539;48.752;12.922;2023-02-04T03:02:00;4.80;95.00
78289;DHT22;67539;48.752;12.922;2023-02-04T03:04:34;4.70;94.80
78289;DHT22;67539;48.752;12.922;2023-02-04T03:07:05;4.80;95.20
78289;DHT22;67539;48.752;12.922;2023-02-04T03:09:34;4.70;95.10
78289;DHT22;67539;48.752;12.922;2023-02-04T03:12:04;4.70;95.00
78289;DHT22;67539;48.752;12.922;2023-02-04T03:14:35;4.70;95.20
78289;DHT22;67539;48.752;12.922;2023-02-04T03:17:06;4.70;95.30
78289;DHT22;67539;48.752;12.922;2023-02-04T03:19:35;4.70;95.10
78289;DHT22;67539;48.752;12.922;2023-02-04T03:22:05;4.70;94.70
78289;DHT22;67539;48.752;12.922;2023-02-04T03:24:34;4.70;94.30
78289;DHT22;67539;48.752;12.922;2023-02-04T03:27:04;4.70;93.90
78289;DHT22;67539;48.752;12.922;2023-02-04T03:29:33;4.70;94.20
78289;DHT22;67539;48.752;12.922;2023-02-04T03:32:01;4.70;93.50
78289;DHT22;67539;48.752;12.922;2023-02-04T03:34:32;4.70;94.50
78289;DHT22;67539;48.752;12.922;2023-02-04T03:37:00;4.70;94.20
78289;DHT22;67539;48.752;12.922;2023-02-04T03:39:27;4.70;94.40
78289;DHT22;67539;48.752;12.922;2023-02-04T03:41:55;4.70;94.30
78289;DHT22;67539;48.752;12.922;2023-02-04T03:44:25;4.70;94.50
78289;DHT22;67539;48.752;12.922;2023-02-04T03:46:53;4.70;94.60
78289;DHT22;67539;48.752;12.922;2023-02-04T03:49:22;4.70;93.90
78289;DHT22;67539;48.752;12.922;2023-02-04T03:51:50;4.70;93.70
78289;DHT22;67539;48.752;12.922;2023-02-04T03:54:18;4.70;93.00
78289;DHT22;67539;48.752;12.922;2023-02-04T03:56:46;4.70;92.90
78289;DHT22;67539;48.752;12.922;2023-02-04T03:59:14;4.70;93.60
78289;DHT22;67539;48.752;12.922;2023-02-04T04:01:43;4.80;92.70
78289;DHT22;67539;48.752;12.922;2023-02-04T04:04:11;4.80;92.70
78289;DHT22;67539;48.752;12.922;2023-02-04T04:06:39;4.70;92.30
78289;DHT22;67539;48.752;12.922;2023-02-04T04:09:07;4.70;92.70
78289;DHT22;67539;48.752;12.922;2023-02-04T04:11:35;4.70;92.50
78289;DHT22;67539;48.752;12.922;2023-02-04T04:14:03;4.70;92.60
78289;DHT22;67539;48.752;12.922;2023-02-04T04:16:31;4.70;92.80
78289;DHT22;67539;48.752;12.922;2023-02-04T04:19:00;4.70;92.70
78289;DHT22;67539;48.752;12.922;2023-02-04T04:21:28;4.70;93.30
78289;DHT22;67539;48.752;12.922;2023-02-04T04:23:57;4.60;93.20
78289;DHT22;67539;48.752;12.922;2023-02-04T04:26:24;4.60;93.20
78289;DHT22;67539;48.752;12.922;2023-02-04T04:28:52;4.70;93.60
78289;DHT22;67539;48.752;12.922;2023-02-04T04:31:20;4.70;93.00
78289;DHT22;67539;48.752;12.922;2023-02-04T04:33:48;4.70;92.80
78289;DHT22;67539;48.752;12.922;2023-02-04T04:36:18;4.70;92.90
78289;DHT22;67539;48.752;12.922;2023-02-04T04:38:46;4.70;93.10
78289;DHT22;67539;48.752;12.922;2023-02-04T04:41:13;4.70;93.00
78289;DHT22;67539;48.752;12.922;2023-02-04T04:43:41;4.70;93.30
78289;DHT22;67539;48.752;12.922;2023-02-04T04:46:09;4.70;92.70
78289;DHT22;67539;48.752;12.922;2023-02-04T04:48:37;4.70;92.70
78289;DHT22;67539;48.752;12.922;2023-02-04T04:51:05;4.70;92.70
78289;DHT22;67539;48.752;12.922;2023-02-04T04:53:35;4.70;92.60
78289;DHT22;67539;48.752;12.922;2023-02-04T04:56:03;4.70;92.30
78289;DHT22;67539;48.752;12.922;2023-02-04T04:58:31;4.70;92.60
78289;DHT22;67539;48.752;12.922;2023-02-04T05:00:59;4.70;92.70
78289;DHT22;67539;48.752;12.922;2023-02-04T05:03:27;4.70;92.40
78289;DHT22;67539;48.752;12.922;2023-02-04T05:05:55;4.80;92.80
78289;DHT22;67539;48.752;12.922;2023-02-04T05:08:23;4.70;92.80
78289;DHT22;67539;48.752;12.922;2023-02-04T05:10:52;4.70;92.90
78289;DHT22;67539;48.752;12.922;2023-02-04T05:13:20;4.70;93.20
78289;DHT22;67539;48.752;12.922;2023-02-04T05:15:49;4.60;94.10
78289;DHT22;67539;48.752;12.922;2023-02-04T05:18:17;4.50;95.50
78289;DHT22;67539;48.752;12.922;2023-02-04T05:20:45;4.40;96.10
78289;DHT22;67539;48.752;12.922;2023-02-04T05:23:13;4.30;97.20
78289;DHT22;67539;48.752;12.922;2023-02-04T05:25:42;4.20;97.90
78289;DHT22;67539;48.752;12.922;2023-02-04T05:28:11;4.10;98.20
78289;DHT22;67539;48.752;12.922;2023-02-04T05:30:39;4.00;98.70
78289;DHT22;67539;48.752;12.922;2023-02-04T05:33:07;4.00;98.70
78289;DHT22;67539;48.752;12.922;2023-02-04T05:35:35;3.90;98.90
78289;DHT22;67539;48.752;12.922;2023-02-04T05:38:03;3.90;98.40
78289;DHT22;67539;48.752;12.922;2023-02-04T05:40:31;3.90;98.50
78289;DHT22;67539;48.752;12.922;2023-02-04T05:42:59;3.80;98.60
78289;DHT22;67539;48.752;12.922;2023-02-04T05:45:29;3.80;98.10
78289;DHT22;67539;48.752;12.922;2023-02-04T05:47:57;3.70;98.80
78289;DHT22;67539;48.752;12.922;2023-02-04T05:50:25;3.60;99.10
78289;DHT22;67539;48.752;12.922;2023-02-04T05:53:07;3.60;99.90
78289;DHT22;67539;48.752;12.922;2023-02-04T05:55:35;3.60;99.90
78289;DHT22;67539;48.752;12.922;2023-02-04T05:58:02;3.50;99.90
78289;DHT22;67539;48.752;12.922;2023-02-04T06:00:32;3.50;99.90
78289;DHT22;67539;48.752;12.922;2023-02-04T06:03:00;3.50;99.90
78289;DHT22;67539;48.752;12.922;2023-02-04T06:05:28;3.50;99.90
78289;DHT22;67539;48.752;12.922;2023-02-04T06:07:56;3.40;99.90
78289;DHT22;67539;48.752;12.922;2023-02-04T06:10:24;3.30;99.90
78289;DHT22;67539;48.752;12.922;2023-02-04T06:12:51;3.30;99.90
78289;DHT22;67539;48.752;12.922;2023-02-04T06:15:19;3.30;99.80
78289;DHT22;67539;48.752;12.922;2023-02-04T06:17:49;3.30;99.70
78289;DHT22;67539;48.752;12.922;2023-02-04T06:20:18;3.30;99.30
78289;DHT22;67539;48.752;12.922;2023-02-04T06:22:46;3.30;99.60
78289;DHT22;67539;48.752;12.922;2023-02-04T06:25:17;3.30;99.90
78289;DHT22;67539;48.752;12.922;2023-02-04T06:27:45;3.30;99.40
78289;DHT22;67539;48.752;12.922;2023-02-04T06:30:13;3.30;99.20
78289;DHT22;67539;48.752;12.922;2023-02-04T06:32:41;3.30;99.10
78289;DHT22;67539;48.752;12.922;2023-02-04T06:35:11;3.30;99.00
78289;DHT22;67539;48.752;12.922;2023-02-04T06:37:40;3.30;98.40
78289;DHT22;67539;48.752;12.922;2023-02-04T06:40:09;3.30;97.80
78289;DHT22;67539;48.752;12.922;2023-02-04T06:42:38;3.30;97.40
78289;DHT22;67539;48.752;12.922;2023-02-04T06:45:06;3.30;97.30
78289;DHT22;67539;48.752;12.922;2023-02-04T06:47:34;3.20;97.90
78289;DHT22;67539;48.752;12.922;2023-02-04T06:50:02;3.20;98.10
78289;DHT22;67539;48.752;12.922;2023-02-04T06:52:31;3.10;98.40
78289;DHT22;67539;48.752;12.922;2023-02-04T06:54:59;3.10;98.40
78289;DHT22;67539;48.752;12.922;2023-02-04T06:57:27;3.10;98.20
78289;DHT22;67539;48.752;12.922;2023-02-04T06:59:55;3.00;97.20
78289;DHT22;67539;48.752;12.922;2023-02-04T07:02:23;3.00;97.40
78289;DHT22;67539;48.752;12.922;2023-02-04T07:04:51;2.90;97.10
78289;DHT22;67539;48.752;12.922;2023-02-04T07:07:19;3.00;96.90
78289;DHT22;67539;48.752;12.922;2023-02-04T07:09:48;2.90;97.10
78289;DHT22;67539;48.752;12.922;2023-02-04T07:12:16;2.90;97.20
78289;DHT22;67539;48.752;12.922;2023-02-04T07:14:44;2.90;96.70
78289;DHT22;67539;48.752;12.922;2023-02-04T07:17:12;2.80;96.70
78289;DHT22;67539;48.752;12.922;2023-02-04T07:19:40;2.80;96.70
78289;DHT22;67539;48.752;12.922;2023-02-04T07:22:07;2.80;96.60
78289;DHT22;67539;48.752;12.922;2023-02-04T07:24:35;2.80;96.20
78289;DHT22;67539;48.752;12.922;2023-02-04T07:27:05;2.80;95.20
78289;DHT22;67539;48.752;12.922;2023-02-04T07:29:33;2.80;94.00
78289;DHT22;67539;48.752;12.922;2023-02-04T07:32:01;2.90;93.90
78289;DHT22;67539;48.752;12.922;2023-02-04T07:34:29;2.90;94.90
78289;DHT22;67539;48.752;12.922;2023-02-04T07:36:57;2.90;94.30
78289;DHT22;67539;48.752;12.922;2023-02-04T07:39:24;2.90;94.30
78289;DHT22;67539;48.752;12.922;2023-02-04T07:41:52;2.90;93.70
78289;DHT22;67539;48.752;12.922;2023-02-04T07:44:25;3.00;94.80
78289;DHT22;67539;48.752;12.922;2023-02-04T07:46:52;3.00;94.40
78289;DHT22;67539;48.752;12.922;2023-02-04T07:49:20;3.00;94.60
78289;DHT22;67539;48.752;12.922;2023-02-04T07:51:48;3.00;95.00
78289;DHT22;67539;48.752;12.922;2023-02-04T07:54:16;3.10;95.80
78289;DHT22;67539;48.752;12.922;2023-02-04T07:56:44;3.00;95.50
78289;DHT22;67539;48.752;12.922;2023-02-04T07:59:12;3.00;95.80
78289;DHT22;67539;48.752;12.922;2023-02-04T08:01:41;3.10;96.00
78289;DHT22;67539;48.752;12.922;2023-02-04T08:04:09;3.00;95.90
78289;DHT22;67539;48.752;12.922;2023-02-04T08:06:37;3.00;95.60
78289;DHT22;67539;48.752;12.922;2023-02-04T08:09:05;3.00;96.10
78289;DHT22;67539;48.752;12.922;2023-02-04T08:11:33;3.00;95.30
78289;DHT22;67539;48.752;12.922;2023-02-04T08:14:01;3.00;95.30
78289;DHT22;67539;48.752;12.922;2023-02-04T08:16:29;3.00;95.30
78289;DHT22;67539;48.752;12.922;2023-02-04T08:18:58;3.00;94.90
78289;DHT22;67539;48.752;12.922;2023-02-04T08:21:26;3.00;94.70
78289;DHT22;67539;48.752;12.922;2023-02-04T08:23:54;3.10;95.10
78289;DHT22;67539;48.752;12.922;2023-02-04T08:26:21;3.10;94.00
78289;DHT22;67539;48.752;12.922;2023-02-04T08:28:49;3.10;94.50
78289;DHT22;67539;48.752;12.922;2023-02-04T08:31:17;3.10;94.90
78289;DHT22;67539;48.752;12.922;2023-02-04T08:33:45;3.10;95.40
78289;DHT22;67539;48.752;12.922;2023-02-04T08:36:15;3.20;95.30
78289;DHT22;67539;48.752;12.922;2023-02-04T08:38:42;3.20;95.10
78289;DHT22;67539;48.752;12.922;2023-02-04T08:41:11;3.20;95.80
78289;DHT22;67539;48.752;12.922;2023-02-04T08:43:38;3.30;95.30
78289;DHT22;67539;48.752;12.922;2023-02-04T08:46:06;3.30;94.80
78289;DHT22;67539;48.752;12.922;2023-02-04T08:48:34;3.30;94.00
78289;DHT22;67539;48.752;12.922;2023-02-04T08:51:03;3.30;93.80
78289;DHT22;67539;48.752;12.922;2023-02-04T08:53:32;3.30;94.00
78289;DHT22;67539;48.752;12.922;2023-02-04T08:56:00;3.30;94.50
78289;DHT22;67539;48.752;12.922;2023-02-04T08:58:28;3.20;93.70
78289;DHT22;67539;48.752;12.922;2023-02-04T09:00:56;3.20;94.00
78289;DHT22;67539;48.752;12.922;2023-02-04T09:03:24;3.20;94.50
78289;DHT22;67539;48.752;12.922;2023-02-04T09:05:52;3.20;93.80
78289;DHT22;67539;48.752;12.922;2023-02-04T09:08:19;3.30;94.70
78289;DHT22;67539;48.752;12.922;2023-02-04T09:10:49;3.30;93.80
78289;DHT22;67539;48.752;12.922;2023-02-04T09:13:17;3.30;93.30
78289;DHT22;67539;48.752;12.922;2023-02-04T09:15:44;3.20;93.60
78289;DHT22;67539;48.752;12.922;2023-02-04T09:18:12;3.10;93.70
78289;DHT22;67539;48.752;12.922;2023-02-04T09:20:43;3.10;93.20
78289;DHT22;67539;48.752;12.922;2023-02-04T09:23:11;3.10;93.50
78289;DHT22;67539;48.752;12.922;2023-02-04T09:25:41;3.10;94.10
78289;DHT22;67539;48.752;12.922;2023-02-04T09:28:11;3.10;93.70
78289;DHT22;67539;48.752;12.922;2023-02-04T09:30:42;3.10;92.80
78289;DHT22;67539;48.752;12.922;2023-02-04T09:33:12;3.10;93.70
78289;DHT22;67539;48.752;12.922;2023-02-04T09:35:40;3.20;93.20
78289;DHT22;67539;48.752;12.922;2023-02-04T09:38:08;3.20;93.40
78289;DHT22;67539;48.752;12.922;2023-02-04T09:40:40;3.30;92.60
78289;DHT22;67539;48.752;12.922;2023-02-04T09:43:14;3.40;93.50
78289;DHT22;67539;48.752;12.922;2023-02-04T09:45:44;3.40;92.20
78289;DHT22;67539;48.752;12.922;2023-02-04T09:48:12;3.50;90.70
78289;DHT22;67539;48.752;12.922;2023-02-04T09:50:41;3.50;92.70
78289;DHT22;67539;48.752;12.922;2023-02-04T09:53:11;3.50;92.80
78289;DHT22;67539;48.752;12.922;2023-02-04T09:55:41;3.60;91.50
78289;DHT22;67539;48.752;12.922;2023-02-04T09:58:13;3.70;91.10
78289;DHT22;67539;48.752;12.922;2023-02-04T10:00:43;3.70;90.90
78289;DHT22;67539;48.752;12.922;2023-02-04T10:03:15;3.70;90.60
78289;DHT22;67539;48.752;12.922;2023-02-04T10:05:45;3.80;90.20
78289;DHT22;67539;48.752;12.922;2023-02-04T10:08:14;3.90;90.40
78289;DHT22;67539;48.752;12.922;2023-02-04T10:10:44;4.00;89.20
78289;DHT22;67539;48.752;12.922;2023-02-04T10:13:17;4.00;86.90
78289;DHT22;67539;48.752;12.922;2023-02-04T10:15:46;4.00;84.60
78289;DHT22;67539;48.752;12.922;2023-02-04T10:18:18;3.90;83.40
78289;DHT22;67539;48.752;12.922;2023-02-04T10:20:47;3.90;83.90
78289;DHT22;67539;48.752;12.922;2023-02-04T10:23:15;4.00;84.40
78289;DHT22;67539;48.752;12.922;2023-02-04T10:25:43;3.90;79.30
78289;DHT22;67539;48.752;12.922;2023-02-04T10:28:10;3.90;79.80
78289;DHT22;67539;48.752;12.922;2023-02-04T10:30:42;4.00;80.80
78289;DHT22;67539;48.752;12.922;2023-02-04T10:33:21;3.90;74.70
78289;DHT22;67539;48.752;12.922;2023-02-04T10:35:52;3.90;76.20
78289;DHT22;67539;48.752;12.922;2023-02-04T10:38:20;3.90;70.80
78289;DHT22;67539;48.752;12.922;2023-02-04T10:40:59;3.90;73.30
78289;DHT22;67539;48.752;12.922;2023-02-04T10:43:28;4.00;74.60
78289;DHT22;67539;48.752;12.922;2023-02-04T10:45:58;4.10;71.10
78289;DHT22;67539;48.752;12.922;2023-02-04T10:48:26;4.00;70.10
78289;DHT22;67539;48.752;12.922;2023-02-04T10:50:57;4.00;70.70
78289;DHT22;67539;48.752;12.922;2023-02-04T10:53:26;4.00;69.10
78289;DHT22;67539;48.752;12.922;2023-02-04T10:56:15;4.00;71.10
78289;DHT22;67539;48.752;12.922;2023-02-04T10:58:45;4.10;68.20
78289;DHT22;67539;48.752;12.922;2023-02-04T11:01:15;4.10;67.80
78289;DHT22;67539;48.752;12.922;2023-02-04T11:03:43;4.10;66.50
78289;DHT22;67539;48.752;12.922;2023-02-04T11:06:19;4.10;67.10
78289;DHT22;67539;48.752;12.922;2023-02-04T11:08:48;4.20;66.60
78289;DHT22;67539;48.752;12.922;2023-02-04T11:11:22;4.20;65.60
78289;DHT22;67539;48.752;12.922;2023-02-04T11:13:58;4.20;65.50
78289;DHT22;67539;48.752;12.922;2023-02-04T11:16:29;4.30;66.40
78289;DHT22;67539;48.752;12.922;2023-02-04T11:18:59;4.40;65.80
78289;DHT22;67539;48.752;12.922;2023-02-04T11:21:40;4.40;64.40
78289;DHT22;67539;48.752;12.922;2023-02-04T11:24:23;4.40;63.60
78289;DHT22;67539;48.752;12.922;2023-02-04T11:26:52;4.40;65.80
78289;DHT22;67539;48.752;12.922;2023-02-04T11:29:33;4.30;65.30
78289;DHT22;67539;48.752;12.922;2023-02-04T11:32:11;4.20;63.30
78289;DHT22;67539;48.752;12.922;2023-02-04T11:34:52;4.20;65.10
78289;DHT22;67539;48.752;12.922;2023-02-04T11:37:37;4.30;65.00
78289;DHT22;67539;48.752;12.922;2023-02-04T11:40:20;4.40;64.50
78289;DHT22;67539;48.752;12.922;2023-02-04T11:42:49;4.40;66.50
78289;DHT22;67539;48.752;12.922;2023-02-04T11:45:20;4.40;64.70
78289;DHT22;67539;48.752;12.922;2023-02-04T11:47:51;4.30;64.40
78289;DHT22;67539;48.752;12.922;2023-02-04T11:50:22;4.20;64.40
78289;DHT22;67539;48.752;12.922;2023-02-04T11:52:53;4.20;68.00
78289;DHT22;67539;48.752;12.922;2023-02-04T11:55:21;4.30;68.70
78289;DHT22;67539;48.752;12.922;2023-02-04T11:57:50;4.30;65.90
78289;DHT22;67539;48.752;12.922;2023-02-04T12:00:20;4.30;68.30
78289;DHT22;67539;48.752;12.922;2023-02-04T12:02:54;4.30;67.40
78289;DHT22;67539;48.752;12.922;2023-02-04T12:05:35;4.20;68.90
78289;DHT22;67539;48.752;12.922;2023-02-04T12:08:12;4.20;66.10
78289;DHT22;67539;48.752;12.922;2023-02-04T12:10:47;4.30;69.70
78289;DHT22;67539;48.752;12.922;2023-02-04T12:13:22;4.30;67.40
78289;DHT22;67539;48.752;12.922;2023-02-04T12:15:58;4.20;65.20
78289;DHT22;67539;48.752;12.922;2023-02-04T12:18:29;4.20;63.70
78289;DHT22;67539;48.752;12.922;2023-02-04T12:20:57;4.10;64.40
78289;DHT22;67539;48.752;12.922;2023-02-04T12:23:27;4.20;65.90
78289;DHT22;67539;48.752;12.922;2023-02-04T12:25:55;4.30;66.20
78289;DHT22;67539;48.752;12.922;2023-02-04T12:28:23;4.30;64.60
78289;DHT22;67539;48.752;12.922;2023-02-04T12:30:53;4.20;63.60
78289;DHT22;67539;48.752;12.922;2023-02-04T12:33:21;4.20;63.10
78289;DHT22;67539;48.752;12.922;2023-02-04T12:35:51;4.20;63.90
78289;DHT22;67539;48.752;12.922;2023-02-04T12:38:19;4.20;65.50
78289;DHT22;67539;48.752;12.922;2023-02-04T12:40:48;4.30;67.10
78289;DHT22;67539;48.752;12.922;2023-02-04T12:43:16;4.40;64.30
78289;DHT22;67539;48.752;12.922;2023-02-04T12:45:44;4.40;64.10
78289;DHT22;67539;48.752;12.922;2023-02-04T12:48:15;4.30;64.00
78289;DHT22;67539;48.752;12.922;2023-02-04T12:50:43;4.30;64.40
78289;DHT22;67539;48.752;12.922;2023-02-04T12:53:12;4.40;63.80
78289;DHT22;67539;48.752;12.922;2023-02-04T12:55:40;4.50;62.70
78289;DHT22;67539;48.752;12.922;2023-02-04T12:58:08;4.50;61.70
78289;DHT22;67539;48.752;12.922;2023-02-04T13:00:36;4.50;61.60
78289;DHT22;67539;48.752;12.922;2023-02-04T13:03:04;4.40;60.80
78289;DHT22;67539;48.752;12.922;2023-02-04T13:05:32;4.40;59.90
78289;DHT22;67539;48.752;12.922;2023-02-04T13:08:01;4.40;60.80
78289;DHT22;67539;48.752;12.922;2023-02-04T13:10:30;4.50;64.50
78289;DHT22;67539;48.752;12.922;2023-02-04T13:12:58;4.50;63.30
78289;DHT22;67539;48.752;12.922;2023-02-04T13:15:30;4.60;63.60
78289;DHT22;67539;48.752;12.922;2023-02-04T13:17:58;4.60;63.10
78289;DHT22;67539;48.752;12.922;2023-02-04T13:20:26;4.50;61.90
78289;DHT22;67539;48.752;12.922;2023-02-04T13:22:54;4.50;63.30
78289;DHT22;67539;48.752;12.922;2023-02-04T13:25:22;4.40;62.40
78289;DHT22;67539;48.752;12.922;2023-02-04T13:27:51;4.40;66.80
78289;DHT22;67539;48.752;12.922;2023-02-04T13:30:19;4.50;67.50
78289;DHT22;67539;48.752;12.922;2023-02-04T13:32:47;4.50;65.60
78289;DHT22;67539;48.752;12.922;2023-02-04T13:35:15;4.50;68.00
78289;DHT22;67539;48.752;12.922;2023-02-04T13:37:45;4.50;64.60
78289;DHT22;67539;48.752;12.922;2023-02-04T13:40:13;4.40;61.50
78289;DHT22;67539;48.752;12.922;2023-02-04T13:42:41;4.40;60.70
78289;DHT22;67539;48.752;12.922;2023-02-04T13:45:10;4.40;62.20
78289;DHT22;67539;48.752;12.922;2023-02-04T13:47:38;4.40;62.80
78289;DHT22;67539;48.752;12.922;2023-02-04T13:50:07;4.50;62.90
78289;DHT22;67539;48.752;12.922;2023-02-04T13:52:35;4.50;64.10
78289;DHT22;67539;48.752;12.922;2023-02-04T13:55:03;4.50;63.40
78289;DHT22;67539;48.752;12.922;2023-02-04T13:57:31;4.50;65.50
78289;DHT22;67539;48.752;12.922;2023-02-04T13:59:59;4.60;65.00
78289;DHT22;67539;48.752;12.922;2023-02-04T14:02:28;4.70;62.60
78289;DHT22;67539;48.752;12.922;2023-02-04T14:04:56;4.80;62.40
78289;DHT22;67539;48.752;12.922;2023-02-04T14:07:24;4.90;64.20
78289;DHT22;67539;48.752;12.922;2023-02-04T14:09:52;5.00;65.00
78289;DHT22;67539;48.752;12.922;2023-02-04T14:12:20;5.20;62.40
78289;DHT22;67539;48.752;12.922;2023-02-04T14:14:48;5.40;64.00
78289;DHT22;67539;48.752;12.922;2023-02-04T14:17:16;5.70;60.80
78289;DHT22;67539;48.752;12.922;2023-02-04T14:19:45;5.90;60.60
78289;DHT22;67539;48.752;12.922;2023-02-04T14:22:13;5.80;56.10
78289;DHT22;67539;48.752;12.922;2023-02-04T14:24:41;5.60;56.40
78289;DHT22;67539;48.752;12.922;2023-02-04T14:27:10;5.50;56.60
78289;DHT22;67539;48.752;12.922;2023-02-04T14:29:38;5.40;56.00
78289;DHT22;67539;48.752;12.922;2023-02-04T14:32:06;5.20;56.00
78289;DHT22;67539;48.752;12.922;2023-02-04T14:34:34;5.10;57.00
78289;DHT22;67539;48.752;12.922;2023-02-04T14:37:03;5.00;57.20
78289;DHT22;67539;48.752;12.922;2023-02-04T14:39:31;4.90;57.40
78289;DHT22;67539;48.752;12.922;2023-02-04T14:41:59;4.80;59.50
78289;DHT22;67539;48.752;12.922;2023-02-04T14:44:30;4.70;59.30
78289;DHT22;67539;48.752;12.922;2023-02-04T14:46:58;4.60;58.70
78289;DHT22;67539;48.752;12.922;2023-02-04T14:49:26;4.70;58.70
78289;DHT22;67539;48.752;12.922;2023-02-04T14:51:54;4.70;59.70
78289;DHT22;67539;48.752;12.922;2023-02-04T14:54:24;4.80;58.60
78289;DHT22;67539;48.752;12.922;2023-02-04T14:56:52;4.70;57.40
78289;DHT22;67539;48.752;12.922;2023-02-04T14:59:20;4.60;57.10
78289;DHT22;67539;48.752;12.922;2023-02-04T15:01:48;4.60;60.20
78289;DHT22;67539;48.752;12.922;2023-02-04T15:04:15;4.50;57.50
78289;DHT22;67539;48.752;12.922;2023-02-04T15:06:44;4.40;58.00
78289;DHT22;67539;48.752;12.922;2023-02-04T15:09:12;4.40;58.30
78289;DHT22;67539;48.752;12.922;2023-02-04T15:11:41;4.60;57.90
78289;DHT22;67539;48.752;12.922;2023-02-04T15:14:09;4.60;57.10
78289;DHT22;67539;48.752;12.922;2023-02-04T15:16:37;4.60;58.00
78289;DHT22;67539;48.752;12.922;2023-02-04T15:19:06;4.60;57.40
78289;DHT22;67539;48.752;12.922;2023-02-04T15:21:34;4.40;57.00
78289;DHT22;67539;48.752;12.922;2023-02-04T15:24:02;4.30;58.20
78289;DHT22;67539;48.752;12.922;2023-02-04T15:26:30;4.20;59.10
78289;DHT22;67539;48.752;12.922;2023-02-04T15:28:59;4.10;59.80
78289;DHT22;67539;48.752;12.922;2023-02-04T15:31:27;4.00;59.50
78289;DHT22;67539;48.752;12.922;2023-02-04T15:33:55;4.00;59.90
78289;DHT22;67539;48.752;12.922;2023-02-04T15:36:23;3.90;60.10
78289;DHT22;67539;48.752;12.922;2023-02-04T15:38:51;3.90;60.00
78289;DHT22;67539;48.752;12.922;2023-02-04T15:41:19;3.70;59.40